Time;durP1;ratioP1;P1;durP2;ratioP2;P2;SDS_P1;SDS_P2;PMS_P1;PMS_P2;Temp;Humidity;BMP_temperature;BMP_pressure;BME280_temperature;BME280_humidity;BME280_pressure;Samples;Min_cycle;Max_cycle;Signal;HPM_P1;HPM_P2
2022/07/08 00:00:17;;;;;;;;;;;;;;;17.39;100.00;100730.34;5075060;28;19924;-82
2022/07/08 00:02:45;;;;;;;;;;;;;;;17.49;100.00;100716.06;5089428;28;19928;-82
2022/07/08 00:05:12;;;;;;;;;;;;;;;17.16;100.00;100722.66;5073756;28;19928;-82
2022/07/08 00:07:39;;;;;;;;;;;;;;;17.58;100.00;100721.94;5074433;28;20314;-82
2022/07/08 00:10:08;;;;;;;;;;;;;;;17.51;100.00;100722.09;5074830;28;20421;-83
2022/07/08 00:12:35;;;;;;;;;;;;;;;17.92;100.00;100725.34;5056729;28;20047;-83
2022/07/08 00:15:03;;;;;;;;;;;;;;;18.08;100.00;100716.16;5072882;28;19931;-83
2022/07/08 00:17:30;;;;;;;;;;;;;;;17.80;100.00;100722.34;5072424;28;19928;-83
2022/07/08 00:19:57;;;;;;;;;;;;;;;18.17;100.00;100724.84;5090226;28;19924;-83
2022/07/08 00:22:24;;;;;;;;;;;;;;;17.77;100.00;100707.06;5089942;28;19995;-82
2022/07/08 00:24:52;;;;;;;;;;;;;;;17.88;100.00;100706.84;5106709;28;19947;-82
2022/07/08 00:27:19;;;;;;;;;;;;;;;18.11;100.00;100709.63;5056261;28;20359;-82
2022/07/08 00:29:46;;;;;;;;;;;;;;;18.09;100.00;100700.78;5089412;28;19931;-82
2022/07/08 00:32:13;;;;;;;;;;;;;;;17.89;100.00;100705.63;5072710;28;20019;-82
2022/07/08 00:34:43;;;;;;;;;;;;;;;17.84;100.00;100711.78;5074011;28;19924;-83
2022/07/08 00:37:10;;;;;;;;;;;;;;;17.96;100.00;100709.09;5073654;28;20271;-83
2022/07/08 00:39:37;;;;;;;;;;;;;;;17.69;100.00;100707.66;5073890;28;19924;-82
2022/07/08 00:42:05;;;;;;;;;;;;;;;17.72;100.00;100712.44;5073757;28;19928;-82
2022/07/08 00:44:33;;;;;;;;;;;;;;;17.91;100.00;100711.66;5074220;28;19964;-82
2022/07/08 00:47:00;;;;;;;;;;;;;;;17.85;100.00;100713.38;5072195;28;20456;-83
2022/07/08 00:49:28;;;;;;;;;;;;;;;17.96;100.00;100719.63;5073105;28;19929;-83
2022/07/08 00:51:56;;;;;;;;;;;;;;;17.89;100.00;100717.72;5073525;28;19924;-83
2022/07/08 00:54:24;;;;;;;;;;;;;;;18.02;100.00;100720.72;5073274;28;19924;-82
2022/07/08 00:56:51;;;;;;;;;;;;;;;17.82;100.00;100719.91;5072714;28;20423;-83
2022/07/08 00:59:19;;;;;;;;;;;;;;;17.70;100.00;100724.16;5056069;28;19924;-83
2022/07/08 01:01:46;;;;;;;;;;;;;;;17.34;100.00;100716.72;5088975;28;19931;-83
2022/07/08 01:04:13;;;;;;;;;;;;;;;17.59;100.00;100717.91;5072883;28;19946;-82
2022/07/08 01:06:41;;;;;;;;;;;;;;;17.46;100.00;100714.09;5105969;28;19975;-82
2022/07/08 01:09:09;;;;;;;;;;;;;;;17.62;100.00;100719.06;5106607;28;20445;-82
2022/07/08 01:11:36;;;;;;;;;;;;;;;17.39;100.00;100719.84;5053949;28;20269;-82
2022/07/08 01:14:04;;;;;;;;;;;;;;;17.66;100.00;100717.00;5106286;28;19932;-82
2022/07/08 01:16:32;;;;;;;;;;;;;;;17.71;100.00;100720.09;5089327;28;19924;-83
2022/07/08 01:18:59;;;;;;;;;;;;;;;17.62;100.00;100727.53;5106749;28;19930;-83
2022/07/08 01:21:27;;;;;;;;;;;;;;;17.41;100.00;100722.25;5072541;28;19968;-82
2022/07/08 01:23:54;;;;;;;;;;;;;;;17.57;100.00;100711.06;5073754;28;19928;-82
2022/07/08 01:26:22;;;;;;;;;;;;;;;17.70;100.00;100709.22;5072498;28;19970;-83
2022/07/08 01:28:50;;;;;;;;;;;;;;;17.79;100.00;100715.13;5088721;28;19924;-83
2022/07/08 01:31:17;;;;;;;;;;;;;;;17.61;100.00;100709.00;5074524;28;20383;-83
2022/07/08 01:33:44;;;;;;;;;;;;;;;17.66;100.00;100717.75;5093325;28;19924;-83
2022/07/08 01:36:12;;;;;;;;;;;;;;;17.73;100.00;100719.69;5076125;28;19931;-83
2022/07/08 01:38:39;;;;;;;;;;;;;;;17.69;100.00;100727.44;5075621;28;20334;-83
2022/07/08 01:41:06;;;;;;;;;;;;;;;17.71;100.00;100716.47;5075658;28;20379;-83
2022/07/08 01:43:34;;;;;;;;;;;;;;;17.69;100.00;100710.47;5076360;28;19931;-83
2022/07/08 01:46:01;;;;;;;;;;;;;;;17.68;100.00;100714.50;5076581;28;19924;-83
2022/07/08 01:48:28;;;;;;;;;;;;;;;17.62;100.00;100713.41;5059497;28;19924;-83
2022/07/08 01:50:55;;;;;;;;;;;;;;;17.66;100.00;100702.84;5075314;28;20368;-83
2022/07/08 01:53:22;;;;;;;;;;;;;;;17.54;100.00;100697.81;5075489;28;19924;-83
2022/07/08 01:55:50;;;;;;;;;;;;;;;17.57;100.00;100700.56;5076537;28;19963;-83
2022/07/08 01:58:17;;;;;;;;;;;;;;;17.53;100.00;100690.56;5076269;28;19931;-83
2022/07/08 02:00:44;;;;;;;;;;;;;;;17.38;100.00;100689.19;5075104;28;20389;-83
2022/07/08 02:03:11;;;;;;;;;;;;;;;17.34;100.00;100691.31;5074821;28;20295;-83
2022/07/08 02:05:38;;;;;;;;;;;;;;;17.32;100.00;100679.63;5075297;28;19924;-83
2022/07/08 02:08:06;;;;;;;;;;;;;;;16.99;100.00;100687.06;5076776;28;19929;-83
2022/07/08 02:12:18;;;;;;;;;;;;;;;16.42;100.00;100691.91;5058439;28;19947;-82
2022/07/08 02:13:20;;;;;;;;;;;;;;;16.50;100.00;100689.81;5076270;28;20319;-83
2022/07/08 02:15:47;;;;;;;;;;;;;;;16.71;100.00;100686.69;5108611;28;19932;-83
2022/07/08 02:18:14;;;;;;;;;;;;;;;16.64;100.00;100683.97;5074872;28;20383;-83
2022/07/08 02:20:41;;;;;;;;;;;;;;;17.10;100.00;100684.06;5074540;28;20019;-81
2022/07/08 02:23:08;;;;;;;;;;;;;;;16.79;100.00;100682.53;5075409;28;19978;-83
2022/07/08 02:25:36;;;;;;;;;;;;;;;16.78;100.00;100683.78;5057734;28;19951;-83
2022/07/08 02:28:03;;;;;;;;;;;;;;;16.96;100.00;100684.28;5074360;28;19925;-83
2022/07/08 02:30:30;;;;;;;;;;;;;;;17.10;100.00;100681.22;5076376;28;19931;-82
2022/07/08 02:32:57;;;;;;;;;;;;;;;17.15;100.00;100683.53;5074307;28;20375;-83
2022/07/08 02:35:24;;;;;;;;;;;;;;;17.34;100.00;100671.53;5074431;28;19925;-83
2022/07/08 02:37:51;;;;;;;;;;;;;;;17.37;100.00;100676.31;5076110;28;19924;-83
2022/07/08 02:40:19;;;;;;;;;;;;;;;17.19;100.00;100673.00;5075770;28;20017;-83
2022/07/08 02:42:46;;;;;;;;;;;;;;;17.25;100.00;100674.09;5073784;28;19928;-83
2022/07/08 02:45:13;;;;;;;;;;;;;;;17.33;100.00;100675.56;5058383;28;19928;-83
2022/07/08 02:47:40;;;;;;;;;;;;;;;17.11;100.00;100677.16;5075542;28;19925;-83
2022/07/08 02:50:08;;;;;;;;;;;;;;;16.93;100.00;100677.47;5057659;28;19978;-83
2022/07/08 02:52:36;;;;;;;;;;;;;;;16.94;100.00;100678.25;5075941;28;20169;-83
2022/07/08 02:55:03;;;;;;;;;;;;;;;16.95;100.00;100680.66;5074486;28;20356;-83
2022/07/08 02:57:30;;;;;;;;;;;;;;;16.44;100.00;100671.78;5073791;28;19925;-83
2022/07/08 02:59:59;;;;;;;;;;;;;;;16.78;100.00;100672.47;5074381;28;19932;-83
2022/07/08 03:02:29;;;;;;;;;;;;;;;16.78;100.00;100672.47;5075877;28;19924;-83
2022/07/08 03:04:58;;;;;;;;;;;;;;;16.52;100.00;100676.09;5074137;28;19960;-83
2022/07/08 03:07:26;;;;;;;;;;;;;;;16.82;100.00;100673.22;5090676;28;19928;-83
2022/07/08 03:09:54;;;;;;;;;;;;;;;16.44;100.00;100675.41;5074362;28;19924;-83
2022/07/08 03:12:21;;;;;;;;;;;;;;;16.08;100.00;100675.03;5107359;28;19928;-83
2022/07/08 03:14:48;;;;;;;;;;;;;;;15.86;100.00;100667.25;5074924;28;19931;-83
2022/07/08 03:17:15;;;;;;;;;;;;;;;16.25;100.00;100679.66;5074247;28;20295;-83
2022/07/08 03:19:42;;;;;;;;;;;;;;;15.40;100.00;100670.63;5057200;28;20027;-83
2022/07/08 03:22:09;;;;;;;;;;;;;;;15.52;100.00;100678.53;5073411;28;19924;-82
2022/07/08 03:24:37;;;;;;;;;;;;;;;16.12;100.00;100681.44;5090710;28;20272;-82
2022/07/08 03:27:04;;;;;;;;;;;;;;;16.39;100.00;100663.78;5089902;28;19924;-83
2022/07/08 03:29:32;;;;;;;;;;;;;;;16.47;100.00;100674.56;5074225;28;19931;-83
2022/07/08 03:31:59;;;;;;;;;;;;;;;16.61;100.00;100673.53;5073537;28;19924;-83
2022/07/08 03:34:28;;;;;;;;;;;;;;;16.72;100.00;100668.53;5074897;28;20019;-83
2022/07/08 03:36:57;;;;;;;;;;;;;;;16.68;100.00;100664.97;5073292;28;20011;-83
2022/07/08 03:39:24;;;;;;;;;;;;;;;16.75;100.00;100667.69;5073315;28;19928;-83
2022/07/08 03:41:52;;;;;;;;;;;;;;;16.68;100.00;100670.59;5056630;28;19924;-83
2022/07/08 03:44:19;;;;;;;;;;;;;;;16.86;100.00;100668.28;5074387;28;20256;-83
2022/07/08 03:46:46;;;;;;;;;;;;;;;16.57;100.00;100669.97;5056609;28;20035;-83
2022/07/08 03:49:13;;;;;;;;;;;;;;;16.73;100.00;100675.78;5040123;28;20035;-83
2022/07/08 03:51:40;;;;;;;;;;;;;;;16.81;100.00;100671.63;5073012;28;19924;-83
2022/07/08 03:54:07;;;;;;;;;;;;;;;17.01;100.00;100669.69;5072080;28;19929;-82
2022/07/08 04:00:04;;;;;;;;;;;;;;;16.87;100.00;100664.25;5071208;28;19924;-85
2022/07/08 04:02:35;;;;;;;;;;;;;;;16.59;100.00;100675.97;5089233;28;19924;-85
2022/07/08 04:05:02;;;;;;;;;;;;;;;16.84;100.00;100670.75;5089716;28;20295;-85
2022/07/08 04:07:29;;;;;;;;;;;;;;;17.07;100.00;100680.03;5089898;28;19924;-86
2022/07/08 04:09:58;;;;;;;;;;;;;;;17.20;100.00;100683.06;5106719;28;20015;-84
2022/07/08 04:12:25;;;;;;;;;;;;;;;17.37;100.00;100670.66;5089266;28;19990;-85
2022/07/08 04:14:54;;;;;;;;;;;;;;;17.28;100.00;100678.91;5088692;28;20420;-85
2022/07/08 04:17:21;;;;;;;;;;;;;;;17.39;100.00;100673.84;5089247;28;19924;-85
2022/07/08 04:19:51;;;;;;;;;;;;;;;17.08;100.00;100680.84;5074684;28;20012;-86
2022/07/08 04:22:18;;;;;;;;;;;;;;;17.04;100.00;100682.94;5073777;28;19963;-83
2022/07/08 04:24:45;;;;;;;;;;;;;;;17.13;100.00;100678.31;5072485;28;19928;-82
2022/07/08 04:27:12;;;;;;;;;;;;;;;17.43;100.00;100674.59;5072718;28;20022;-83
2022/07/08 04:29:39;;;;;;;;;;;;;;;17.46;100.00;100673.75;5089548;28;19924;-83
2022/07/08 04:32:07;;;;;;;;;;;;;;;17.36;100.00;100681.16;5089631;28;19928;-83
2022/07/08 04:34:34;;;;;;;;;;;;;;;17.43;100.00;100680.25;5073988;28;19925;-83
2022/07/08 04:37:01;;;;;;;;;;;;;;;17.56;100.00;100689.69;5073649;28;20431;-83
2022/07/08 04:39:28;;;;;;;;;;;;;;;17.58;100.00;100681.59;5089147;28;20377;-83
2022/07/08 04:41:55;;;;;;;;;;;;;;;17.21;100.00;100676.97;5072681;28;19932;-83
2022/07/08 04:44:22;;;;;;;;;;;;;;;17.38;100.00;100672.25;5072450;28;20011;-83
2022/07/08 04:46:49;;;;;;;;;;;;;;;17.38;100.00;100677.91;5073611;28;20379;-83
2022/07/08 04:49:17;;;;;;;;;;;;;;;17.17;100.00;100666.97;5072442;28;20345;-83
2022/07/08 04:51:44;;;;;;;;;;;;;;;17.52;100.00;100677.69;5089085;28;19931;-83
2022/07/08 04:54:11;;;;;;;;;;;;;;;17.30;100.00;100679.25;5056308;28;20426;-83
2022/07/08 04:56:38;;;;;;;;;;;;;;;17.67;100.00;100679.81;5089429;28;20508;-83
2022/07/08 04:59:06;;;;;;;;;;;;;;;17.65;100.00;100681.44;5072238;28;20387;-83
2022/07/08 05:01:33;;;;;;;;;;;;;;;17.83;100.00;100679.06;5056487;28;20287;-83
2022/07/08 05:04:00;;;;;;;;;;;;;;;17.88;100.00;100678.56;5074158;28;19978;-83
2022/07/08 05:06:27;;;;;;;;;;;;;;;17.67;100.00;100681.81;5110020;28;19928;-83
2022/07/08 05:08:54;;;;;;;;;;;;;;;17.84;100.00;100683.53;5109742;28;19929;-83
2022/07/08 05:11:22;;;;;;;;;;;;;;;17.87;100.00;100685.47;5075987;28;20445;-83
2022/07/08 05:13:49;;;;;;;;;;;;;;;18.07;100.00;100680.59;5076283;28;19924;-84
2022/07/08 05:16:17;;;;;;;;;;;;;;;17.66;100.00;100683.84;5076119;28;19943;-82
2022/07/08 05:18:44;;;;;;;;;;;;;;;17.79;100.00;100693.31;5076352;28;20398;-79
2022/07/08 05:21:11;;;;;;;;;;;;;;;17.55;100.00;100688.91;5109622;28;19925;-78
2022/07/08 05:23:38;;;;;;;;;;;;;;;17.42;100.00;100702.03;5075937;28;19978;-82
2022/07/08 05:26:06;;;;;;;;;;;;;;;17.22;100.00;100694.75;5076852;28;19924;-83
2022/07/08 05:28:33;;;;;;;;;;;;;;;17.66;100.00;100700.03;5077511;28;19986;-82
2022/07/08 05:31:00;;;;;;;;;;;;;;;18.04;100.00;100704.09;5077215;28;19925;-82
2022/07/08 05:33:27;;;;;;;;;;;;;;;17.32;100.00;100707.88;5109828;28;19928;-82
2022/07/08 05:35:54;;;;;;;;;;;;;;;17.29;100.00;100703.09;5076903;28;20380;-82
2022/07/08 05:38:21;;;;;;;;;;;;;;;17.83;100.00;100705.34;5075908;28;19924;-83
2022/07/08 05:40:49;;;;;;;;;;;;;;;17.82;100.00;100700.91;5077438;28;20002;-82
2022/07/08 05:43:16;;;;;;;;;;;;;;;18.34;100.00;100712.38;5075784;28;20346;-82
2022/07/08 05:45:43;;;;;;;;;;;;;;;17.96;100.00;100711.16;5075967;28;19970;-82
2022/07/08 05:48:10;;;;;;;;;;;;;;;18.32;100.00;100717.66;5076671;28;19959;-82
2022/07/08 05:50:37;;;;;;;;;;;;;;;17.56;100.00;100712.31;5075944;28;20371;-82
2022/07/08 05:53:04;;;;;;;;;;;;;;;17.71;100.00;100719.31;5059332;28;19932;-82
2022/07/08 05:55:32;;;;;;;;;;;;;;;17.86;100.00;100715.78;5076474;28;20375;-82
2022/07/08 05:57:59;;;;;;;;;;;;;;;18.06;100.00;100721.44;5076805;28;19925;-82
2022/07/08 06:00:26;;;;;;;;;;;;;;;18.22;100.00;100717.88;5059251;28;19929;-82
2022/07/08 06:02:53;;;;;;;;;;;;;;;17.72;100.00;100718.09;5058932;28;19932;-82
2022/07/08 06:05:20;;;;;;;;;;;;;;;18.11;100.00;100729.44;5075243;28;19932;-82
2022/07/08 06:07:47;;;;;;;;;;;;;;;17.78;100.00;100725.63;5076905;28;19929;-82
2022/07/08 06:10:14;;;;;;;;;;;;;;;17.70;100.00;100729.03;5076785;28;20019;-82
2022/07/08 06:12:41;;;;;;;;;;;;;;;17.95;100.00;100735.78;5074927;28;19924;-82
2022/07/08 06:15:13;;;;;;;;;;;;;;;18.00;100.00;100737.31;5075111;28;19924;-82
2022/07/08 06:17:41;;;;;;;;;;;;;;;17.94;100.00;100744.72;5075194;28;20318;-82
2022/07/08 06:20:09;;;;;;;;;;;;;;;18.03;100.00;100733.63;5076189;28;19932;-82
2022/07/08 06:22:36;;;;;;;;;;;;;;;17.80;100.00;100745.78;5042072;28;19947;-82
2022/07/08 06:25:03;;;;;;;;;;;;;;;17.97;100.00;100755.16;5058263;28;19925;-82
2022/07/08 06:27:30;;;;;;;;;;;;;;;18.51;100.00;100750.81;5058727;28;20364;-82
2022/07/08 06:29:57;;;;;;;;;;;;;;;18.07;100.00;100747.69;5075094;28;19928;-82
2022/07/08 06:32:24;;;;;;;;;;;;;;;18.27;100.00;100751.31;5075344;28;19924;-82
2022/07/08 06:34:51;;;;;;;;;;;;;;;18.60;100.00;100756.69;5074809;28;19957;-82
2022/07/08 06:37:19;;;;;;;;;;;;;;;18.30;100.00;100751.25;5058571;28;19924;-82
2022/07/08 06:39:46;;;;;;;;;;;;;;;18.31;100.00;100760.53;5076208;28;19924;-82
2022/07/08 06:42:13;;;;;;;;;;;;;;;18.28;100.00;100767.84;5075216;28;19929;-82
2022/07/08 06:44:42;;;;;;;;;;;;;;;18.05;100.00;100767.94;5074919;28;19930;-84
2022/07/08 06:47:11;;;;;;;;;;;;;;;18.39;100.00;100762.81;5075468;28;19970;-86
2022/07/08 06:49:41;;;;;;;;;;;;;;;18.57;100.00;100768.91;5041485;28;19925;-85
2022/07/08 06:52:08;;;;;;;;;;;;;;;18.62;100.00;100765.56;5074172;28;19932;-85
2022/07/08 06:54:35;;;;;;;;;;;;;;;18.82;100.00;100763.50;5074228;28;19928;-84
2022/07/08 06:57:07;;;;;;;;;;;;;;;18.88;100.00;100770.22;5057440;28;20376;-81
2022/07/08 06:59:35;;;;;;;;;;;;;;;19.32;100.00;100760.31;5057908;28;19924;-86
2022/07/08 07:02:17;;;;;;;;;;;;;;;19.39;100.00;100765.78;5059666;28;19924;-86
2022/07/08 07:04:44;;;;;;;;;;;;;;;19.54;100.00;100753.66;5073421;28;20367;-86
2022/07/08 07:07:11;;;;;;;;;;;;;;;19.34;100.00;100764.28;5057536;28;19924;-86
2022/07/08 07:09:40;;;;;;;;;;;;;;;19.40;100.00;100759.69;5057863;28;19925;-86
2022/07/08 07:12:07;;;;;;;;;;;;;;;19.12;100.00;100759.56;5057151;28;19956;-86
2022/07/08 07:14:35;;;;;;;;;;;;;;;19.23;100.00;100754.44;5073823;28;20429;-80
2022/07/08 07:17:02;;;;;;;;;;;;;;;19.61;100.00;100755.53;5040767;28;19964;-79
2022/07/08 07:19:29;;;;;;;;;;;;;;;19.51;100.00;100754.53;5075369;28;19977;-82
2022/07/08 07:21:56;;;;;;;;;;;;;;;19.81;100.00;100749.72;5073721;28;19924;-82
2022/07/08 07:24:24;;;;;;;;;;;;;;;19.72;100.00;100743.91;5074230;28;19925;-83
2022/07/08 07:26:51;;;;;;;;;;;;;;;19.60;100.00;100753.91;5073256;28;19924;-84
2022/07/08 07:29:18;;;;;;;;;;;;;;;19.69;100.00;100756.91;5073235;28;19964;-83
2022/07/08 07:31:46;;;;;;;;;;;;;;;19.99;100.00;100752.88;5040296;28;19924;-84
2022/07/08 07:34:13;;;;;;;;;;;;;;;20.30;100.00;100754.03;5057174;28;19931;-83
2022/07/08 07:36:40;;;;;;;;;;;;;;;20.52;100.00;100749.34;5092393;28;19931;-84
2022/07/08 07:39:10;;;;;;;;;;;;;;;20.28;100.00;100753.69;5057752;28;20371;-82
2022/07/08 07:41:39;;;;;;;;;;;;;;;20.18;100.00;100749.13;5057607;28;20385;-83
2022/07/08 07:44:39;;;;;;;;;;;;;;;19.82;100.00;100754.16;5057293;28;19982;-83
2022/07/08 07:47:06;;;;;;;;;;;;;;;20.34;100.00;100751.91;5056852;28;19931;-83
2022/07/08 07:49:33;;;;;;;;;;;;;;;20.69;100.00;100762.22;5057336;28;19932;-81
2022/07/08 07:52:00;;;;;;;;;;;;;;;20.57;100.00;100760.16;5075005;28;19940;-83
2022/07/08 07:54:27;;;;;;;;;;;;;;;20.53;100.00;100762.28;5074598;28;19925;-82
2022/07/08 07:56:55;;;;;;;;;;;;;;;20.19;100.00;100770.59;5074654;28;20294;-82
2022/07/08 07:59:22;;;;;;;;;;;;;;;20.34;100.00;100772.56;5056627;28;19928;-83
2022/07/08 08:01:49;;;;;;;;;;;;;;;20.14;100.00;100771.13;5040007;28;19974;-82
2022/07/08 08:04:17;;;;;;;;;;;;;;;20.45;100.00;100764.53;5090862;28;19982;-83
2022/07/08 08:06:44;;;;;;;;;;;;;;;21.18;100.00;100763.50;5054131;28;20014;-81
2022/07/08 08:09:12;;;;;;;;;;;;;;;22.21;100.00;100761.56;5068388;28;19964;-78
2022/07/08 08:11:40;;;;;;;;;;;;;;;23.58;100.00;100765.53;5036224;28;19925;-79
2022/07/08 08:14:07;;;;;;;;;;;;;;;24.40;100.00;100746.41;5069218;28;20393;-81
2022/07/08 08:16:34;;;;;;;;;;;;;;;24.08;100.00;100747.84;5070289;28;20393;-82
2022/07/08 08:19:02;;;;;;;;;;;;;;;24.18;100.00;100752.31;5071639;28;19931;-80
2022/07/08 08:21:30;;;;;;;;;;;;;;;23.81;100.00;100749.88;5068849;28;19952;-81
2022/07/08 08:23:58;;;;;;;;;;;;;;;23.57;100.00;100748.91;5070729;28;20427;-81
2022/07/08 08:26:27;;;;;;;;;;;;;;;23.94;100.00;100753.38;5071625;28;20276;-82
2022/07/08 08:28:55;;;;;;;;;;;;;;;24.43;100.00;100745.47;5103256;28;19932;-81
2022/07/08 08:31:22;;;;;;;;;;;;;;;25.14;100.00;100737.19;5069298;28;19928;-81
2022/07/08 08:33:49;;;;;;;;;;;;;;;24.63;100.00;100734.28;5071253;28;19931;-81
2022/07/08 08:36:16;;;;;;;;;;;;;;;25.04;100.00;100730.69;5070472;28;19924;-81
2022/07/08 08:38:46;;;;;;;;;;;;;;;25.34;100.00;100729.63;5070541;28;19925;-82
2022/07/08 08:41:15;;;;;;;;;;;;;;;24.57;100.00;100737.00;5087920;28;20372;-82
2022/07/08 08:43:42;;;;;;;;;;;;;;;24.72;100.00;100740.00;5074179;28;19924;-82
2022/07/08 08:46:10;;;;;;;;;;;;;;;24.78;100.00;100738.09;5072981;28;20019;-82
2022/07/08 08:48:39;;;;;;;;;;;;;;;24.77;100.00;100742.22;5090410;28;19925;-81
2022/07/08 08:51:09;;;;;;;;;;;;;;;24.42;100.00;100756.09;5074263;28;19970;-81
2022/07/08 08:53:44;;;;;;;;;;;;;;;24.83;100.00;100742.38;5074712;28;20368;-80
2022/07/08 08:56:12;;;;;;;;;;;;;;;25.35;100.00;100745.53;5073513;28;19970;-83
2022/07/08 08:58:41;;;;;;;;;;;;;;;25.09;100.00;100741.50;5087566;28;20007;-85
2022/07/08 09:01:08;;;;;;;;;;;;;;;25.31;100.00;100733.41;5070295;28;19924;-83
2022/07/08 09:03:36;;;;;;;;;;;;;;;25.27;100.00;100732.81;5069797;28;19931;-83
2022/07/08 09:06:04;;;;;;;;;;;;;;;25.07;100.00;100748.97;5071107;28;20187;-84
2022/07/08 09:08:31;;;;;;;;;;;;;;;24.01;100.00;100741.66;5071344;28;20384;-85
2022/07/08 09:10:59;;;;;;;;;;;;;;;23.61;100.00;100740.97;5069523;28;20384;-85
2022/07/08 09:13:26;;;;;;;;;;;;;;;23.18;100.00;100739.06;5087248;28;20430;-81
2022/07/08 09:15:57;;;;;;;;;;;;;;;23.09;100.00;100739.84;5053357;28;19930;-82
2022/07/08 09:18:32;;;;;;;;;;;;;;;22.59;100.00;100747.97;5069415;28;20023;-84
2022/07/08 09:20:59;;;;;;;;;;;;;;;22.86;100.00;100743.22;5052848;28;19939;-85
2022/07/08 09:23:28;;;;;;;;;;;;;;;22.51;100.00;100735.25;5070369;28;19954;-84
2022/07/08 09:26:00;;;;;;;;;;;;;;;23.44;100.00;100739.66;5071052;28;19925;-84
2022/07/08 09:28:31;;;;;;;;;;;;;;;23.97;100.00;100718.19;5070404;28;20106;-83
2022/07/08 09:30:59;;;;;;;;;;;;;;;24.28;100.00;100715.97;5070017;28;19932;-81
2022/07/08 09:33:27;;;;;;;;;;;;;;;24.34;100.00;100720.53;5070874;28;19934;-81
2022/07/08 09:35:55;;;;;;;;;;;;;;;24.08;100.00;100718.50;5068972;28;19954;-81
2022/07/08 09:38:23;;;;;;;;;;;;;;;24.44;100.00;100716.41;5070978;28;19924;-81
2022/07/08 09:40:55;;;;;;;;;;;;;;;24.17;100.00;100712.81;5070156;28;19925;-82
2022/07/08 09:43:22;;;;;;;;;;;;;;;23.47;100.00;100704.47;5068758;28;19929;-81
2022/07/08 09:45:49;;;;;;;;;;;;;;;23.23;100.00;100714.84;5069567;28;19925;-81
2022/07/08 09:48:18;;;;;;;;;;;;;;;22.91;100.00;100716.97;5069641;28;20270;-80
2022/07/08 09:50:48;;;;;;;;;;;;;;;23.42;100.00;100733.63;5067568;28;19959;-80
2022/07/08 09:53:31;;;;;;;;;;;;;;;23.27;100.00;100722.03;5069160;28;19967;-80
2022/07/08 09:56:00;;;;;;;;;;;;;;;23.19;100.00;100725.63;5068445;28;19928;-82
2022/07/08 09:58:28;;;;;;;;;;;;;;;23.00;100.00;100719.84;5069501;28;19924;-80
2022/07/08 10:00:56;;;;;;;;;;;;;;;22.77;100.00;100731.78;5070157;28;19925;-81
2022/07/08 10:03:24;;;;;;;;;;;;;;;23.00;100.00;100717.00;5070352;28;20007;-80
2022/07/08 10:05:51;;;;;;;;;;;;;;;22.95;100.00;100714.75;5071015;28;19940;-81
2022/07/08 10:08:19;;;;;;;;;;;;;;;23.27;100.00;100729.78;5068829;28;20423;-81
2022/07/08 10:10:48;;;;;;;;;;;;;;;21.98;100.00;100728.66;5070364;28;20262;-81
2022/07/08 10:13:15;;;;;;;;;;;;;;;22.12;100.00;100722.47;5071047;28;19925;-81
2022/07/08 10:15:43;;;;;;;;;;;;;;;22.52;100.00;100717.69;5070021;28;19924;-81
2022/07/08 10:18:29;;;;;;;;;;;;;;;22.04;100.00;100720.34;5085702;28;20268;-80
2022/07/08 10:20:58;;;;;;;;;;;;;;;22.03;100.00;100708.16;5070080;28;19924;-81
2022/07/08 10:23:28;;;;;;;;;;;;;;;21.77;100.00;100715.19;5052609;28;20368;-81
2022/07/08 10:25:56;;;;;;;;;;;;;;;22.03;100.00;100713.84;5069456;28;19929;-82
2022/07/08 10:28:37;;;;;;;;;;;;;;;22.52;100.00;100709.13;5068570;28;19963;-81
2022/07/08 10:31:30;;;;;;;;;;;;;;;22.58;100.00;100701.56;5052293;28;19924;-82
2022/07/08 10:34:01;;;;;;;;;;;;;;;22.23;100.00;100691.53;5068600;28;20023;-81
2022/07/08 10:36:28;;;;;;;;;;;;;;;22.32;100.00;100707.88;5069435;28;19971;-82
2022/07/08 10:38:56;;;;;;;;;;;;;;;22.91;100.00;100704.75;5069370;28;19924;-82
2022/07/08 10:41:25;;;;;;;;;;;;;;;22.66;100.00;100700.03;5051681;28;19939;-81
2022/07/08 10:43:53;;;;;;;;;;;;;;;23.24;100.00;100705.00;5052672;28;19932;-82
2022/07/08 10:46:24;;;;;;;;;;;;;;;23.08;100.00;100706.09;5068301;28;19928;-81
2022/07/08 10:48:53;;;;;;;;;;;;;;;23.03;100.00;100701.81;5068306;28;19924;-84
2022/07/08 10:51:26;;;;;;;;;;;;;;;23.74;100.00;100704.50;5085308;28;20022;-83
2022/07/08 10:54:05;;;;;;;;;;;;;;;23.63;100.00;100698.50;5053474;28;20001;-83
2022/07/08 10:56:44;;;;;;;;;;;;;;;23.13;100.00;100698.97;5035391;28;19929;-81
2022/07/08 10:59:22;;;;;;;;;;;;;;;22.91;100.00;100694.16;5071008;28;19924;-80
2022/07/08 11:01:57;;;;;;;;;;;;;;;22.90;100.00;100694.63;5070956;28;19924;-81
2022/07/08 11:04:27;;;;;;;;;;;;;;;22.64;100.00;100694.00;5072054;28;19932;-82
2022/07/08 11:07:14;;;;;;;;;;;;;;;23.27;100.00;100698.41;5087908;28;19928;-82
2022/07/08 11:09:42;;;;;;;;;;;;;;;23.37;100.00;100700.03;5070690;28;20619;-82
2022/07/08 11:12:12;;;;;;;;;;;;;;;23.14;100.00;100696.44;5087747;28;19970;-83
2022/07/08 11:14:44;;;;;;;;;;;;;;;23.09;100.00;100694.22;5070863;28;20422;-84
2022/07/08 11:17:15;;;;;;;;;;;;;;;22.96;100.00;100696.38;5071195;28;20023;-82
2022/07/08 11:19:43;;;;;;;;;;;;;;;23.22;100.00;100701.88;5087410;28;19925;-82
2022/07/08 11:22:10;;;;;;;;;;;;;;;23.17;100.00;100675.53;5072012;28;19976;-83
2022/07/08 11:24:54;;;;;;;;;;;;;;;23.88;100.00;100686.75;5071381;28;19935;-81
2022/07/08 11:27:24;;;;;;;;;;;;;;;24.04;100.00;100686.47;5053881;28;19951;-81
2022/07/08 11:29:52;;;;;;;;;;;;;;;24.03;100.00;100676.31;5071461;28;20391;-79
2022/07/08 11:32:21;;;;;;;;;;;;;;;23.63;100.00;100687.06;5071207;28;20195;-79
2022/07/08 11:34:48;;;;;;;;;;;;;;;23.78;100.00;100673.78;5069373;28;19924;-79
2022/07/08 11:37:16;;;;;;;;;;;;;;;23.66;100.00;100671.88;5071095;28;19931;-79
2022/07/08 11:39:44;;;;;;;;;;;;;;;23.76;100.00;100673.44;5070438;28;19935;-79
2022/07/08 11:42:12;;;;;;;;;;;;;;;23.42;100.00;100680.22;5070559;28;19975;-79
2022/07/08 11:44:40;;;;;;;;;;;;;;;23.89;100.00;100672.00;5070920;28;20467;-77
2022/07/08 11:47:10;;;;;;;;;;;;;;;23.47;100.00;100695.91;5070336;28;19931;-76
2022/07/08 11:49:42;;;;;;;;;;;;;;;23.75;100.00;100678.34;5069434;28;19924;-76
2022/07/08 11:52:09;;;;;;;;;;;;;;;24.13;100.00;100675.03;5069983;28;19925;-75
2022/07/08 11:54:37;;;;;;;;;;;;;;;24.31;100.00;100658.66;5070549;28;20038;-76
2022/07/08 11:57:05;;;;;;;;;;;;;;;24.04;100.00;100660.75;5068564;28;19932;-76
2022/07/08 11:59:34;;;;;;;;;;;;;;;23.95;100.00;100670.13;5069887;28;19925;-76
2022/07/08 12:02:02;;;;;;;;;;;;;;;22.53;100.00;100670.06;5070569;28;19967;-75
2022/07/08 12:04:29;;;;;;;;;;;;;;;23.08;100.00;100674.72;5071607;28;19929;-75
2022/07/08 12:07:00;;;;;;;;;;;;;;;23.10;100.00;100675.84;5072713;28;19928;-77
2022/07/08 12:09:28;;;;;;;;;;;;;;;23.25;100.00;100672.44;5073767;28;19932;-76
2022/07/08 12:11:57;;;;;;;;;;;;;;;22.84;100.00;100670.84;5072713;28;19929;-78
2022/07/08 12:14:24;;;;;;;;;;;;;;;23.27;100.00;100667.03;5071908;28;19970;-78
2022/07/08 12:16:55;;;;;;;;;;;;;;;23.58;100.00;100662.03;5073680;28;19932;-78
2022/07/08 12:19:26;;;;;;;;;;;;;;;23.62;100.00;100662.66;5089152;28;20396;-78
2022/07/08 12:21:58;;;;;;;;;;;;;;;23.60;100.00;100659.50;5055887;28;19925;-78
2022/07/08 12:24:33;;;;;;;;;;;;;;;23.82;100.00;100654.41;5072833;28;20365;-79
2022/07/08 12:27:02;;;;;;;;;;;;;;;23.95;100.00;100646.47;5055966;28;20491;-78
2022/07/08 12:29:33;;;;;;;;;;;;;;;24.19;100.00;100644.53;5072526;28;19924;-78
2022/07/08 12:32:08;;;;;;;;;;;;;;;24.25;100.00;100625.53;5072519;28;19924;-79
2022/07/08 12:34:35;;;;;;;;;;;;;;;24.14;100.00;100636.66;5071387;28;20377;-78
2022/07/08 12:37:15;;;;;;;;;;;;;;;24.13;100.00;100623.63;5073128;28;19956;-79